createdAt,value
2018-11-12T00:00:14.813Z,17.80
2018-11-12T00:02:42.292Z,17.15
2018-11-12T00:05:09.607Z,18.33
2018-11-12T00:07:36.859Z,17.27
2018-11-12T00:10:05.092Z,17.40
2018-11-12T00:12:32.376Z,18.17
2018-11-12T00:14:59.647Z,18.00
2018-11-12T00:17:26.916Z,19.20
2018-11-12T00:19:54.132Z,18.50
2018-11-12T00:22:21.468Z,17.90
2018-11-12T00:24:48.739Z,19.25
2018-11-12T00:27:16.032Z,18.13
2018-11-12T00:29:43.331Z,19.13
2018-11-12T00:32:10.599Z,19.27
2018-11-12T00:34:38.247Z,18.30
2018-11-12T00:37:05.547Z,18.80
2018-11-12T00:39:32.864Z,19.27
2018-11-12T00:42:00.163Z,19.50
2018-11-12T00:44:27.588Z,19.10
2018-11-12T00:46:55.180Z,20.07
2018-11-12T00:49:22.663Z,18.60
2018-11-12T00:51:50.635Z,19.87
2018-11-12T00:54:18.080Z,19.63
2018-11-12T00:56:45.457Z,19.70
2018-11-12T00:59:13.104Z,20.30
2018-11-12T01:01:41.530Z,20.97
2018-11-12T01:04:09.045Z,20.63
2018-11-12T01:06:36.363Z,20.10
2018-11-12T01:09:06.414Z,21.20
2018-11-12T01:11:34.299Z,20.27
2018-11-12T01:14:01.884Z,20.10
2018-11-12T01:16:29.192Z,20.90
2018-11-12T01:18:56.688Z,20.73
2018-11-12T01:21:24.044Z,21.17
2018-11-12T01:23:51.404Z,20.75
2018-11-12T01:26:18.920Z,20.73
2018-11-12T01:28:46.453Z,22.33
2018-11-12T01:31:13.692Z,20.37
2018-11-12T01:33:41.031Z,21.63
2018-11-12T01:36:08.496Z,21.77
2018-11-12T01:38:36.074Z,21.63
2018-11-12T01:41:03.535Z,21.17
2018-11-12T01:43:30.964Z,22.63
2018-11-12T01:45:58.582Z,21.60
2018-11-12T01:48:26.107Z,22.57
2018-11-12T01:50:53.791Z,21.70
2018-11-12T01:53:21.343Z,21.12
2018-11-12T01:55:48.771Z,22.80
2018-11-12T01:58:16.292Z,23.30
2018-11-12T02:00:43.885Z,22.23
2018-11-12T02:03:11.421Z,22.30
2018-11-12T02:05:38.826Z,21.63
2018-11-12T02:08:06.267Z,22.30
2018-11-12T02:10:33.555Z,22.17
2018-11-12T02:13:01.015Z,23.20
2018-11-12T02:15:28.400Z,21.07
2018-11-12T02:17:55.756Z,20.67
2018-11-12T02:20:23.199Z,20.73
2018-11-12T02:22:50.937Z,21.23
2018-11-12T02:25:19.320Z,21.07
2018-11-12T02:27:46.749Z,20.97
2018-11-12T02:30:16.832Z,22.87
2018-11-12T02:32:44.191Z,21.50
2018-11-12T02:35:11.623Z,21.50
2018-11-12T02:37:39.627Z,21.97
2018-11-12T02:40:09.485Z,20.03
2018-11-12T02:42:36.763Z,21.60
2018-11-12T02:45:04.329Z,21.67
2018-11-12T02:47:32.360Z,22.00
2018-11-12T02:49:59.790Z,20.10
2018-11-12T02:52:27.580Z,21.37
2018-11-12T02:54:54.976Z,20.07
2018-11-12T02:57:22.326Z,21.27
2018-11-12T02:59:49.666Z,21.63
2018-11-12T03:02:16.904Z,21.33
2018-11-12T03:04:44.348Z,25.23
2018-11-12T03:07:11.775Z,25.80
2018-11-12T03:09:39.088Z,26.30
2018-11-12T03:12:06.386Z,25.77
2018-11-12T03:14:33.892Z,25.60
2018-11-12T03:17:01.156Z,27.10
2018-11-12T03:19:28.504Z,27.90
2018-11-12T03:21:55.848Z,27.93
2018-11-12T03:24:23.313Z,26.03
2018-11-12T03:26:50.631Z,26.30
2018-11-12T03:29:17.908Z,26.47
2018-11-12T03:31:45.364Z,29.60
2018-11-12T03:34:12.740Z,27.30
2018-11-12T03:36:40.192Z,27.27
2018-11-12T03:39:08.555Z,27.67
2018-11-12T03:41:35.931Z,27.00
2018-11-12T03:44:03.322Z,25.67
2018-11-12T03:46:30.615Z,26.33
2018-11-12T03:48:58.486Z,26.30
2018-11-12T03:51:25.848Z,27.17
2018-11-12T03:53:53.233Z,26.40
2018-11-12T03:56:20.490Z,27.23
2018-11-12T03:58:47.913Z,24.97
2018-11-12T04:01:15.283Z,28.43
2018-11-12T04:03:42.699Z,26.17
2018-11-12T04:06:10.155Z,25.07
2018-11-12T04:08:37.697Z,26.90
2018-11-12T04:11:05.082Z,24.87
2018-11-12T04:13:32.580Z,25.43
2018-11-12T04:16:00.044Z,24.40
2018-11-12T04:18:27.410Z,23.10
2018-11-12T04:20:54.919Z,21.80
2018-11-12T04:23:22.244Z,20.27
2018-11-12T04:25:49.584Z,21.80
2018-11-12T04:28:16.933Z,21.83
2018-11-12T04:30:44.439Z,24.00
2018-11-12T04:33:11.776Z,23.80
2018-11-12T04:35:39.082Z,23.93
2018-11-12T04:38:06.596Z,26.40
2018-11-12T04:40:33.871Z,26.23
2018-11-12T04:43:01.364Z,26.13
2018-11-12T04:45:29.819Z,27.90
2018-11-12T04:47:57.336Z,27.33
2018-11-12T04:50:25.867Z,27.50
2018-11-12T04:52:53.686Z,26.83
2018-11-12T04:55:21.930Z,29.50
2018-11-12T04:57:49.416Z,26.63
2018-11-12T05:00:19.951Z,26.27
2018-11-12T05:02:47.309Z,28.07
2018-11-12T05:05:15.789Z,25.23
2018-11-12T05:07:44.893Z,25.73
2018-11-12T05:10:13.530Z,28.33
2018-11-12T05:12:41.474Z,27.93
2018-11-12T05:15:12.087Z,28.03
2018-11-12T05:17:39.759Z,25.27
2018-11-12T05:20:10.876Z,27.97
2018-11-12T05:22:38.970Z,25.70
2018-11-12T05:25:07.094Z,25.13
2018-11-12T05:27:34.827Z,23.93
2018-11-12T05:30:04.390Z,24.03
2018-11-12T05:32:31.988Z,25.43
2018-11-12T05:34:59.561Z,21.70
2018-11-12T05:37:28.310Z,23.33
2018-11-12T05:39:55.812Z,23.70
2018-11-12T05:42:24.376Z,24.40
2018-11-12T05:44:51.994Z,24.03
2018-11-12T05:47:19.281Z,23.53
2018-11-12T05:49:46.575Z,24.40
2018-11-12T05:52:13.886Z,23.57
2018-11-12T05:54:41.212Z,24.43
2018-11-12T05:57:08.683Z,24.87
2018-11-12T05:59:36.073Z,25.67
2018-11-12T06:02:03.450Z,26.80
2018-11-12T06:04:30.755Z,28.33
2018-11-12T06:06:58.031Z,28.87
2018-11-12T06:09:25.337Z,32.17
2018-11-12T06:11:52.596Z,29.43
2018-11-12T06:14:19.864Z,29.17
2018-11-12T06:16:47.158Z,28.00
2018-11-12T06:19:14.427Z,28.13
2018-11-12T06:21:41.733Z,30.93
2018-11-12T06:24:09.028Z,31.10
2018-11-12T06:26:36.377Z,30.07
2018-11-12T06:29:03.700Z,30.43
2018-11-12T06:31:30.965Z,30.30
2018-11-12T06:33:58.223Z,28.50
2018-11-12T06:36:25.613Z,27.73
2018-11-12T06:38:53.221Z,26.83
2018-11-12T06:41:20.496Z,27.03
2018-11-12T06:43:47.836Z,27.43
2018-11-12T06:46:15.132Z,26.13
2018-11-12T06:48:42.453Z,24.53
2018-11-12T06:51:09.751Z,23.40
2018-11-12T06:53:37.125Z,23.43
2018-11-12T06:56:04.949Z,24.37
2018-11-12T06:58:32.284Z,25.97
2018-11-12T07:00:59.715Z,25.00
2018-11-12T07:03:26.981Z,25.50
2018-11-12T07:05:54.312Z,26.60
2018-11-12T07:08:21.641Z,26.27
2018-11-12T07:10:49.007Z,26.30
2018-11-12T07:13:16.359Z,25.77
2018-11-12T07:15:43.652Z,26.00
2018-11-12T07:18:10.966Z,25.93
2018-11-12T07:20:38.357Z,25.53
2018-11-12T07:23:05.725Z,25.07
2018-11-12T07:25:33.065Z,25.43
2018-11-12T07:28:00.405Z,25.67
2018-11-12T07:30:28.243Z,26.03
2018-11-12T07:32:56.525Z,25.27
2018-11-12T07:35:24.298Z,24.87
2018-11-12T07:37:52.824Z,25.43
2018-11-12T07:40:20.514Z,25.27
2018-11-12T07:42:47.870Z,24.30
2018-11-12T07:45:17.385Z,25.02
2018-11-12T07:47:45.629Z,24.03
2018-11-12T07:50:14.222Z,24.97
2018-11-12T07:52:41.651Z,24.90
2018-11-12T07:55:11.967Z,24.40
2018-11-12T07:57:39.290Z,25.07
2018-11-12T08:00:13.260Z,24.55
2018-11-12T08:02:41.670Z,23.92
2018-11-12T08:05:09.509Z,22.80
2018-11-12T08:07:36.845Z,23.27
2018-11-12T08:10:05.926Z,24.40
2018-11-12T08:12:33.251Z,22.45
2018-11-12T08:15:00.570Z,22.13
2018-11-12T08:17:27.983Z,22.40
2018-11-12T08:19:55.228Z,21.03
2018-11-12T08:22:22.561Z,21.25
2018-11-12T08:24:50.049Z,20.75
2018-11-12T08:27:17.301Z,21.02
2018-11-12T08:29:44.746Z,19.98
2018-11-12T08:32:12.032Z,20.72
2018-11-12T08:34:39.343Z,20.27
2018-11-12T08:37:06.786Z,19.30
2018-11-12T08:39:34.265Z,19.23
2018-11-12T08:42:01.512Z,18.87
2018-11-12T08:44:28.948Z,17.82
2018-11-12T08:46:56.415Z,17.62
2018-11-12T08:49:23.785Z,18.10
2018-11-12T08:51:51.087Z,16.60
2018-11-12T08:54:18.432Z,15.78
2018-11-12T08:56:45.746Z,15.03
2018-11-12T08:59:13.189Z,14.83
2018-11-12T09:01:40.445Z,14.60
2018-11-12T09:04:07.795Z,14.78
2018-11-12T09:06:36.015Z,15.43
2018-11-12T09:09:05.117Z,15.23
2018-11-12T09:11:32.863Z,15.15
2018-11-12T09:14:01.423Z,15.93
2018-11-12T09:16:29.215Z,15.03
2018-11-12T09:18:57.332Z,15.25
2018-11-12T09:21:24.657Z,15.38
2018-11-12T09:23:51.974Z,15.35
2018-11-12T09:26:20.061Z,15.08
2018-11-12T09:28:48.332Z,16.20
2018-11-12T09:31:16.945Z,14.87
2018-11-12T09:33:43.131Z,14.85
2018-11-12T09:36:10.541Z,14.10
2018-11-12T09:38:37.957Z,14.05
2018-11-12T09:41:05.271Z,13.48
2018-11-12T09:43:32.615Z,13.78
2018-11-12T09:45:59.956Z,13.32
2018-11-12T09:48:27.308Z,14.10
2018-11-12T09:50:54.729Z,13.72
2018-11-12T09:53:22.026Z,13.60
2018-11-12T09:55:49.363Z,13.03
2018-11-12T09:58:17.112Z,12.88
2018-11-12T10:00:44.726Z,12.37
2018-11-12T10:03:13.119Z,12.82
2018-11-12T10:05:40.642Z,13.38
2018-11-12T10:08:10.638Z,13.13
2018-11-12T10:10:41.620Z,12.85
2018-11-12T10:13:10.814Z,13.22
2018-11-12T10:15:38.133Z,13.72
2018-11-12T10:18:06.208Z,14.07
2018-11-12T10:20:30.059Z,14.38
2018-11-12T10:22:57.349Z,14.33
2018-11-12T10:25:24.797Z,14.93
2018-11-12T10:27:52.098Z,14.38
2018-11-12T10:30:19.650Z,13.98
2018-11-12T10:32:46.975Z,13.60
2018-11-12T10:35:14.305Z,13.40
2018-11-12T10:37:41.801Z,12.55
2018-11-12T10:40:15.090Z,12.33
2018-11-12T10:42:42.829Z,12.18
2018-11-12T10:45:09.982Z,12.50
2018-11-12T10:47:37.333Z,11.83
2018-11-12T10:50:05.289Z,11.88
2018-11-12T10:52:32.619Z,11.57
2018-11-12T10:55:04.898Z,10.82
2018-11-12T10:57:27.258Z,10.60
2018-11-12T10:59:54.558Z,10.88
2018-11-12T11:02:26.173Z,10.68
2018-11-12T11:04:53.538Z,10.65
2018-11-12T11:07:20.864Z,10.78
2018-11-12T11:09:48.221Z,10.43
2018-11-12T11:12:15.561Z,10.13
2018-11-12T11:14:42.910Z,9.48
2018-11-12T11:17:10.276Z,9.23
2018-11-12T11:19:37.644Z,9.95
2018-11-12T11:22:05.021Z,10.03
2018-11-12T11:24:32.429Z,8.95
2018-11-12T11:27:00.338Z,8.93
2018-11-12T11:29:27.650Z,9.43
2018-11-12T11:31:55.016Z,9.50
2018-11-12T11:34:22.360Z,8.95
2018-11-12T11:36:49.692Z,9.60
2018-11-12T11:39:17.058Z,8.73
2018-11-12T11:41:44.400Z,9.43
2018-11-12T11:44:11.709Z,8.80
2018-11-12T11:46:39.017Z,8.33
2018-11-12T11:49:06.317Z,9.63
2018-11-12T11:51:33.628Z,8.10
2018-11-12T11:54:00.958Z,8.03
2018-11-12T11:56:28.396Z,8.90
2018-11-12T11:58:55.701Z,8.10
2018-11-12T12:01:23.041Z,7.80
2018-11-12T12:03:54.991Z,7.65
2018-11-12T12:06:22.346Z,7.95
2018-11-12T12:08:49.716Z,8.30
2018-11-12T12:11:17.041Z,7.53
2018-11-12T12:13:44.393Z,7.03
2018-11-12T12:16:11.755Z,7.17
2018-11-12T12:18:39.334Z,7.17
2018-11-12T12:21:06.747Z,7.42
2018-11-12T12:23:34.006Z,6.97
2018-11-12T12:26:01.442Z,6.75
2018-11-12T12:28:28.757Z,6.83
2018-11-12T12:30:56.093Z,6.58
2018-11-12T12:33:23.433Z,6.47
2018-11-12T12:35:50.797Z,5.92
2018-11-12T12:38:18.118Z,5.75
2018-11-12T12:40:45.469Z,5.80
2018-11-12T12:43:13.891Z,5.80
2018-11-12T12:45:41.385Z,5.90
2018-11-12T12:48:08.654Z,5.65
2018-11-12T12:50:35.974Z,5.75
2018-11-12T12:53:03.326Z,5.55
2018-11-12T12:55:31.059Z,5.50
2018-11-12T12:57:58.614Z,5.97
2018-11-12T13:00:26.708Z,5.30
2018-11-12T13:02:54.059Z,5.40
2018-11-12T13:05:21.400Z,5.97
2018-11-12T13:07:50.126Z,6.00
2018-11-12T13:10:18.893Z,5.37
2018-11-12T13:12:46.292Z,5.15
2018-11-12T13:15:14.989Z,5.83
2018-11-12T13:17:43.011Z,5.50
2018-11-12T13:20:11.989Z,5.45
2018-11-12T13:22:39.438Z,5.45
2018-11-12T13:25:07.402Z,5.22
2018-11-12T13:27:34.737Z,5.35
2018-11-12T13:30:02.234Z,5.62
2018-11-12T13:32:29.507Z,5.87
2018-11-12T13:34:56.827Z,5.92
2018-11-12T13:37:24.154Z,5.12
2018-11-12T13:39:51.468Z,5.67
2018-11-12T13:42:18.770Z,5.42
2018-11-12T13:44:46.630Z,5.62
2018-11-12T13:47:13.988Z,5.40
2018-11-12T13:49:41.291Z,5.85
2018-11-12T13:52:08.602Z,5.80
2018-11-12T13:54:35.911Z,5.92
2018-11-12T14:05:42.025Z,5.45
2018-11-12T14:08:09.385Z,5.78
2018-11-12T14:10:36.723Z,5.10
2018-11-12T14:13:04.138Z,5.47
2018-11-12T14:15:31.470Z,6.00
2018-11-12T14:17:58.807Z,5.75
2018-11-12T14:20:26.722Z,5.65
2018-11-12T14:22:53.918Z,5.53
2018-11-12T14:25:22.240Z,4.97
2018-11-12T14:27:50.932Z,5.33
2018-11-12T14:30:19.553Z,5.40
2018-11-12T14:32:46.907Z,5.30
2018-11-12T14:35:14.637Z,5.00
2018-11-12T14:37:43.188Z,5.25
2018-11-12T14:40:11.695Z,5.42
2018-11-12T14:42:39.218Z,5.50
2018-11-12T14:45:07.986Z,5.75
2018-11-12T14:47:35.248Z,5.70
2018-11-12T14:50:02.644Z,5.53
2018-11-12T14:52:29.988Z,5.05
2018-11-12T14:54:57.352Z,5.90
2018-11-12T14:57:24.772Z,5.53
2018-11-12T14:59:52.076Z,5.83
2018-11-12T15:02:19.440Z,5.65
2018-11-12T15:04:46.788Z,6.12
2018-11-12T15:07:14.168Z,5.87
2018-11-12T15:09:41.516Z,5.62
2018-11-12T15:12:08.905Z,5.80
2018-11-12T15:14:36.372Z,5.92
2018-11-12T15:17:03.608Z,6.03
2018-11-12T15:19:30.952Z,6.65
2018-11-12T15:21:58.302Z,6.20
2018-11-12T15:24:25.643Z,6.65
2018-11-12T15:26:52.971Z,6.50
2018-11-12T15:29:20.429Z,7.20
2018-11-12T15:31:47.941Z,6.92
2018-11-12T15:34:15.330Z,7.08
2018-11-12T15:36:42.683Z,7.10
2018-11-12T15:39:10.822Z,7.00
2018-11-12T15:41:38.341Z,7.22
2018-11-12T15:44:06.036Z,7.78
2018-11-12T15:46:34.202Z,8.38
2018-11-12T15:49:01.523Z,7.97
2018-11-12T15:51:28.849Z,8.20
2018-11-12T15:53:56.205Z,7.97
2018-11-12T15:56:23.748Z,8.15
2018-11-12T15:58:51.111Z,8.45
2018-11-12T16:01:18.456Z,7.50
2018-11-12T16:03:45.788Z,8.20
2018-11-12T16:06:13.313Z,8.15
2018-11-12T16:08:40.476Z,8.28
2018-11-12T16:11:07.809Z,9.25
2018-11-12T16:13:35.134Z,8.75
2018-11-12T16:16:02.456Z,8.48
2018-11-12T16:18:29.804Z,8.68
2018-11-12T16:20:57.140Z,9.60
2018-11-12T16:23:24.464Z,9.30
2018-11-12T16:25:51.820Z,9.45
2018-11-12T16:28:19.139Z,9.28
2018-11-12T16:30:46.492Z,9.18
2018-11-12T16:33:13.859Z,9.43
2018-11-12T16:35:41.197Z,9.55
2018-11-12T16:38:08.616Z,9.18
2018-11-12T16:40:36.089Z,10.32
2018-11-12T16:43:03.425Z,9.88
2018-11-12T16:45:30.764Z,9.43
2018-11-12T16:47:58.073Z,10.08
2018-11-12T16:50:25.399Z,10.38
2018-11-12T16:52:52.761Z,10.20
2018-11-12T16:55:22.004Z,9.80
2018-11-12T16:57:50.070Z,10.45
2018-11-12T17:00:18.687Z,11.00
2018-11-12T17:02:46.421Z,11.40
2018-11-12T17:05:15.432Z,11.12
2018-11-12T17:07:42.855Z,10.88
2018-11-12T17:10:12.214Z,11.25
2018-11-12T17:12:40.663Z,10.48
2018-11-12T17:15:08.787Z,11.03
2018-11-12T17:17:36.243Z,10.72
2018-11-12T17:20:03.671Z,10.65
2018-11-12T17:22:31.001Z,10.18
2018-11-12T17:24:58.594Z,11.28
2018-11-12T17:27:25.971Z,10.80
2018-11-12T17:29:53.646Z,11.83
2018-11-12T17:32:21.089Z,11.57
2018-11-12T17:34:48.473Z,10.93
2018-11-12T17:37:15.920Z,11.20
2018-11-12T17:39:43.452Z,11.35
2018-11-12T17:42:11.030Z,12.03
2018-11-12T17:44:38.501Z,12.25
2018-11-12T17:47:05.823Z,12.30
2018-11-12T17:49:33.201Z,12.45
2018-11-12T17:52:00.532Z,12.00
2018-11-12T17:54:27.986Z,11.95
2018-11-12T17:56:55.320Z,12.28
2018-11-12T17:59:22.663Z,12.15
2018-11-12T18:01:50.037Z,16.55
2018-11-12T18:04:17.449Z,12.93
2018-11-12T18:06:44.773Z,12.93
2018-11-12T18:09:12.261Z,13.50
2018-11-12T18:11:39.587Z,13.50
2018-11-12T18:14:08.404Z,13.18
2018-11-12T18:16:35.809Z,13.00
2018-11-12T18:19:03.336Z,13.38
2018-11-12T18:21:30.767Z,13.15
2018-11-12T18:23:58.120Z,13.20
2018-11-12T18:26:39.761Z,13.30
2018-11-12T18:29:07.165Z,13.90
2018-11-12T18:31:34.715Z,13.58
2018-11-12T18:34:01.905Z,13.28
2018-11-12T18:36:29.257Z,13.22
2018-11-12T18:38:57.657Z,13.85
2018-11-12T18:41:24.978Z,13.22
2018-11-12T18:43:52.348Z,14.13
2018-11-12T18:46:20.013Z,13.67
2018-11-12T18:48:59.193Z,14.20
2018-11-12T18:51:27.366Z,13.53
2018-11-12T18:53:54.814Z,12.97
2018-11-12T18:56:22.118Z,13.88
2018-11-12T18:58:49.462Z,13.67
2018-11-12T19:01:16.793Z,13.65
2018-11-12T19:03:44.165Z,13.63
2018-11-12T19:06:11.468Z,14.00
2018-11-12T19:08:38.914Z,13.62
2018-11-12T19:11:06.559Z,12.33
2018-11-12T19:13:33.767Z,13.30
2018-11-12T19:16:01.281Z,13.03
2018-11-12T19:21:35.593Z,12.50
2018-11-12T19:24:02.892Z,12.37
2018-11-12T19:26:30.284Z,12.43
2018-11-12T19:28:57.678Z,12.47
2018-11-12T19:31:25.042Z,12.68
2018-11-12T19:33:52.376Z,13.22
2018-11-12T19:36:19.698Z,12.43
2018-11-12T19:38:47.060Z,12.53
2018-11-12T19:41:14.393Z,12.35
2018-11-12T19:43:41.768Z,12.50
2018-11-12T19:46:09.087Z,12.23
2018-11-12T19:48:36.467Z,12.60
2018-11-12T19:51:03.869Z,11.90
2018-11-12T19:53:31.199Z,13.05
2018-11-12T19:55:58.603Z,12.80
2018-11-12T19:58:25.954Z,12.23
2018-11-12T20:00:53.374Z,12.07
2018-11-12T20:03:20.721Z,13.05
2018-11-12T20:05:48.205Z,12.13
2018-11-12T20:08:15.613Z,12.53
2018-11-12T20:10:42.971Z,12.43
2018-11-12T20:13:10.510Z,13.03
2018-11-12T20:15:37.857Z,12.58
2018-11-12T20:18:05.358Z,12.40
2018-11-12T20:20:33.221Z,12.57
2018-11-12T20:23:00.698Z,12.57
2018-11-12T20:25:28.092Z,13.13
2018-11-12T20:27:56.346Z,12.23
2018-11-12T20:30:27.358Z,11.68
2018-11-12T20:32:55.550Z,11.90
2018-11-12T20:35:23.964Z,12.93
2018-11-12T20:37:51.254Z,12.68
2018-11-12T20:40:18.585Z,17.70
2018-11-12T20:42:46.724Z,12.82
2018-11-12T20:45:14.969Z,12.37
2018-11-12T20:47:43.316Z,12.65
2018-11-12T20:50:11.513Z,13.30
2018-11-12T20:52:38.918Z,12.45
2018-11-12T20:55:07.289Z,13.40
2018-11-12T20:57:34.914Z,13.05
2018-11-12T21:00:02.294Z,13.30
2018-11-12T21:02:29.645Z,13.58
2018-11-12T21:04:57.071Z,14.43
2018-11-12T21:07:25.354Z,13.80
2018-11-12T21:09:52.715Z,13.53
2018-11-12T21:12:20.355Z,14.10
2018-11-12T21:14:47.751Z,14.25
2018-11-12T21:17:15.115Z,13.90
2018-11-12T21:19:42.454Z,14.33
2018-11-12T21:22:11.752Z,13.53
2018-11-12T21:24:39.174Z,13.87
2018-11-12T21:27:06.545Z,14.17
2018-11-12T21:29:33.964Z,13.83
2018-11-12T21:32:01.458Z,13.83
2018-11-12T21:34:29.142Z,14.90
2018-11-12T21:36:56.647Z,14.20
2018-11-12T21:39:23.970Z,14.15
2018-11-12T21:41:51.426Z,15.13
2018-11-12T21:44:18.792Z,15.30
2018-11-12T21:46:46.110Z,14.33
2018-11-12T21:49:13.510Z,14.60
2018-11-12T21:51:40.858Z,13.97
2018-11-12T21:54:34.203Z,15.20
2018-11-12T21:57:14.897Z,14.50
2018-11-12T21:59:42.240Z,14.93
2018-11-12T22:02:09.586Z,17.13
2018-11-12T22:04:36.961Z,16.17
2018-11-12T22:07:04.289Z,16.73
2018-11-12T22:09:31.669Z,23.67
2018-11-12T22:11:59.048Z,18.73
2018-11-12T22:14:26.530Z,23.03
2018-11-12T22:16:54.542Z,17.02
2018-11-12T22:19:21.982Z,16.13
2018-11-12T22:21:49.265Z,15.43
2018-11-12T22:24:16.668Z,15.63
2018-11-12T22:26:43.965Z,15.73
2018-11-12T22:29:11.294Z,16.02
2018-11-12T22:31:38.616Z,15.60
2018-11-12T22:34:05.905Z,15.18
2018-11-12T22:36:33.247Z,15.17
2018-11-12T22:39:00.604Z,16.00
2018-11-12T22:41:27.925Z,15.40
2018-11-12T22:43:55.382Z,15.50
2018-11-12T22:46:22.769Z,15.65
2018-11-12T22:48:50.166Z,15.37
2018-11-12T22:51:17.614Z,14.90
2018-11-12T22:56:15.658Z,15.57
2018-11-12T22:58:42.994Z,15.40
2018-11-12T23:01:10.331Z,15.57
2018-11-12T23:03:37.649Z,14.50
2018-11-12T23:06:11.222Z,15.33
2018-11-12T23:08:38.997Z,14.87
2018-11-12T23:11:06.389Z,15.00
2018-11-12T23:13:33.713Z,13.63
2018-11-12T23:16:01.022Z,13.80
2018-11-12T23:18:28.407Z,14.10
2018-11-12T23:20:56.111Z,13.00
2018-11-12T23:23:23.549Z,13.10
2018-11-12T23:25:50.853Z,13.30
2018-11-12T23:28:18.574Z,12.73
2018-11-12T23:30:45.974Z,12.20
2018-11-12T23:33:13.311Z,11.97
2018-11-12T23:35:40.829Z,13.03
2018-11-12T23:38:08.145Z,12.23
2018-11-12T23:40:35.453Z,11.50
2018-11-12T23:43:03.149Z,12.30
2018-11-12T23:45:30.450Z,12.67
2018-11-12T23:47:57.809Z,12.07
2018-11-12T23:50:25.627Z,12.23
2018-11-12T23:52:53.259Z,12.50
2018-11-12T23:55:21.398Z,11.87
2018-11-12T23:57:49.284Z,11.20
